Phetchaburi, Thailand
Current Conditions -  °F | °C
As of 11:00 AM on Wednesday 22 Oct 2014 (Local Time) from VTPH Reporting Station
Few Clouds Few Clouds  
Wind Chill: 88°   Ceiling: Unl
Heat Index: 100°   Visibility: 6mi
Dew Point: 77°   Wind: 6mph
Humidity: 70%   Direction: NA
Pressure: 29.91"   Gusts: NA
Location:  13.11°N, 99.95°E
Report Text: VTPH 220400Z VRB05KT 9999 FEW030 31/25 Q1013 NOSIG
Loading
Personal Weather Stations






























Interactive Weather Map
Tropical Storm Tracking
New forecast layout! Learn more

10-Day Weather Forecast

Advertisements
Track Severe Weather on mobile